createdAt,value
2018-09-11T00:05:49.000Z,21.82
2018-09-11T00:15:49.000Z,21.8
2018-09-11T00:25:49.000Z,21.78
2018-09-11T00:35:49.000Z,21.78
2018-09-11T00:45:49.000Z,21.75
2018-09-11T00:55:49.000Z,21.73
2018-09-11T01:05:49.000Z,21.71
2018-09-11T01:15:49.000Z,21.7
2018-09-11T01:25:49.000Z,21.67
2018-09-11T01:35:49.000Z,21.66
2018-09-11T01:45:49.000Z,21.64
2018-09-11T01:55:49.000Z,21.62
2018-09-11T02:05:49.000Z,21.6
2018-09-11T02:15:49.000Z,21.57
2018-09-11T02:25:49.000Z,21.55
2018-09-11T02:35:49.000Z,21.55
2018-09-11T02:45:49.000Z,21.51
2018-09-11T02:55:49.000Z,21.49
2018-09-11T03:05:49.000Z,21.48
2018-09-11T03:15:50.000Z,21.46
2018-09-11T03:25:50.000Z,21.45
2018-09-11T03:35:50.000Z,21.43
2018-09-11T03:45:50.000Z,21.41
2018-09-11T03:55:50.000Z,21.4
2018-09-11T04:05:50.000Z,21.4
2018-09-11T04:15:50.000Z,21.36
2018-09-11T04:25:50.000Z,21.34
2018-09-11T04:35:50.000Z,21.32
2018-09-11T04:45:50.000Z,21.3
2018-09-11T04:55:54.000Z,21.28
2018-09-11T05:05:50.000Z,21.27
2018-09-11T05:15:50.000Z,21.23
2018-09-11T05:25:50.000Z,21.22
2018-09-11T05:35:50.000Z,21.21
2018-09-11T05:45:50.000Z,21.21
2018-09-11T05:55:50.000Z,21.21
2018-09-11T06:05:50.000Z,21.24
2018-09-11T06:15:50.000Z,21.24
2018-09-11T06:25:50.000Z,21.22
2018-09-11T06:35:50.000Z,21.24
2018-09-11T06:45:50.000Z,21.27
2018-09-11T06:55:50.000Z,21.27
2018-09-11T07:05:50.000Z,21.34
2018-09-11T07:15:50.000Z,21.39
2018-09-11T07:25:50.000Z,21.48
2018-09-11T07:35:50.000Z,21.55
2018-09-11T07:45:50.000Z,21.57
2018-09-11T07:55:50.000Z,21.64
2018-09-11T08:05:50.000Z,21.66
2018-09-11T08:15:50.000Z,21.75
2018-09-11T08:25:50.000Z,21.81
2018-09-11T08:35:50.000Z,21.84
2018-09-11T08:45:50.000Z,21.94
2018-09-11T08:55:50.000Z,22
2018-09-11T09:15:50.000Z,22.15
2018-09-11T09:25:50.000Z,22.21
2018-09-11T09:35:50.000Z,22.33
2018-09-11T09:45:50.000Z,22.54
2018-09-11T09:55:50.000Z,22.66
2018-09-11T10:05:50.000Z,22.79
2018-09-11T10:15:50.000Z,22.89
2018-09-11T10:25:50.000Z,23.04
2018-09-11T10:35:50.000Z,23.15
2018-09-11T10:45:50.000Z,23.23
2018-09-11T10:55:50.000Z,23.29
2018-09-11T11:05:50.000Z,23.4
2018-09-11T11:15:50.000Z,23.51
2018-09-11T11:25:50.000Z,23.6
2018-09-11T11:45:51.000Z,23.71
2018-09-11T11:55:51.000Z,23.77
2018-09-11T12:05:51.000Z,23.82
2018-09-11T12:15:51.000Z,23.83
2018-09-11T12:25:51.000Z,23.89
2018-09-11T12:35:51.000Z,23.84
2018-09-11T12:45:51.000Z,23.96
2018-09-11T12:55:51.000Z,23.9
2018-09-11T13:05:51.000Z,23.94
2018-09-11T13:15:51.000Z,23.9
2018-09-11T13:25:51.000Z,23.94
2018-09-11T13:35:51.000Z,23.92
2018-09-11T13:45:51.000Z,23.94
2018-09-11T13:55:51.000Z,23.99
2018-09-11T14:05:51.000Z,23.97
2018-09-11T14:15:51.000Z,23.97
2018-09-11T14:25:51.000Z,24.01
2018-09-11T14:35:51.000Z,23.97
2018-09-11T14:45:51.000Z,24
2018-09-11T14:55:51.000Z,23.99
2018-09-11T15:05:51.000Z,24.03
2018-09-11T15:15:51.000Z,24.05
2018-09-11T15:25:51.000Z,24.06
2018-09-11T15:35:51.000Z,24.06
2018-09-11T15:45:51.000Z,24.1
2018-09-11T15:55:51.000Z,24.1
2018-09-11T16:05:51.000Z,24.14
2018-09-11T16:15:51.000Z,24.17
2018-09-11T16:25:51.000Z,24.15
2018-09-11T16:35:51.000Z,24.07
2018-09-11T16:45:54.000Z,24.07
2018-09-11T16:55:51.000Z,24
2018-09-11T17:05:51.000Z,24
2018-09-11T17:15:51.000Z,23.99
2018-09-11T17:35:51.000Z,23.92
2018-09-11T17:45:51.000Z,23.88
2018-09-11T17:55:51.000Z,23.85
2018-09-11T18:05:51.000Z,23.83
2018-09-11T18:15:51.000Z,23.82
2018-09-11T18:25:51.000Z,23.78
2018-09-11T18:35:51.000Z,23.76
2018-09-11T18:45:51.000Z,23.77
2018-09-11T18:55:51.000Z,23.75
2018-09-11T19:05:51.000Z,23.72
2018-09-11T19:15:51.000Z,23.68
2018-09-11T19:25:51.000Z,23.66
2018-09-11T19:35:52.000Z,23.64
2018-09-11T19:45:51.000Z,23.61
2018-09-11T19:55:52.000Z,23.59
2018-09-11T20:05:52.000Z,23.56
2018-09-11T20:15:52.000Z,23.53
2018-09-11T20:25:54.000Z,23.53
2018-09-11T20:35:52.000Z,23.5
2018-09-11T20:45:52.000Z,23.46
2018-09-11T20:55:52.000Z,23.42
2018-09-11T21:05:52.000Z,23.39
2018-09-11T21:15:52.000Z,23.35
2018-09-11T21:25:52.000Z,23.33
2018-09-11T21:35:52.000Z,23.32
2018-09-11T21:45:52.000Z,23.31
2018-09-11T21:55:52.000Z,23.3
2018-09-11T22:05:52.000Z,23.29
2018-09-11T22:15:52.000Z,23.28
2018-09-11T22:25:52.000Z,23.27
2018-09-11T22:35:52.000Z,23.25
2018-09-11T22:45:53.000Z,23.22
2018-09-11T22:55:52.000Z,23.18
2018-09-11T23:05:52.000Z,23.17
2018-09-11T23:15:52.000Z,23.15
2018-09-11T23:25:52.000Z,23.16
2018-09-11T23:35:52.000Z,23.15
2018-09-11T23:45:52.000Z,23.13
2018-09-11T23:55:52.000Z,23.11
